Time;durP1;ratioP1;P1;durP2;ratioP2;P2;SDS_P1;SDS_P2;PMS_P1;PMS_P2;Temp;Humidity;BMP_temperature;BMP_pressure;BME280_temperature;BME280_humidity;BME280_pressure;Samples;Min_cycle;Max_cycle;Signal;HPM_P1;HPM_P2
2022/08/01 00:01:43;;;;;;;1999.90;999.90;;;;;;;22.68;100.00;95229.56;5055801;28;20208;-68
2022/08/01 00:04:08;;;;;;;1999.90;999.90;;;;;;;22.71;100.00;95227.84;5056847;28;20196;-63
2022/08/01 00:06:34;;;;;;;1999.90;999.90;;;;;;;22.73;100.00;95230.91;5056941;28;20189;-59
2022/08/01 00:08:59;;;;;;;1999.90;999.90;;;;;;;22.70;100.00;95231.88;5057003;28;20264;-68
2022/08/01 00:11:25;;;;;;;1999.90;999.90;;;;;;;22.71;100.00;95225.06;5057196;28;20232;-65
2022/08/01 00:13:50;;;;;;;1999.90;999.90;;;;;;;22.78;100.00;95221.84;5057110;28;20276;-66
2022/08/01 00:16:15;;;;;;;1999.90;999.90;;;;;;;22.80;100.00;95230.50;5056923;28;20205;-63
2022/08/01 00:18:41;;;;;;;1999.90;999.90;;;;;;;22.81;100.00;95226.47;5057086;28;20554;-63
2022/08/01 00:21:06;;;;;;;1999.90;999.90;;;;;;;22.80;100.00;95230.50;5056877;28;20193;-63
2022/08/01 00:23:32;;;;;;;1999.90;999.90;;;;;;;22.80;100.00;95234.03;5057262;28;20192;-65
2022/08/01 00:25:57;;;;;;;1999.90;999.90;;;;;;;22.74;100.00;95233.22;5056688;28;20185;-64
2022/08/01 00:28:23;;;;;;;1999.90;999.90;;;;;;;22.72;100.00;95229.38;5057467;28;20195;-71
2022/08/01 00:30:48;;;;;;;1999.90;999.90;;;;;;;22.67;100.00;95235.63;5056516;28;20185;-70
2022/08/01 00:33:13;;;;;;;1999.90;999.90;;;;;;;22.61;100.00;95229.22;5056734;28;20185;-70
2022/08/01 00:35:39;;;;;;;1999.90;999.90;;;;;;;22.58;100.00;95235.78;5056688;28;20192;-72
2022/08/01 00:38:04;;;;;;;1999.90;999.90;;;;;;;22.52;100.00;95240.47;5073244;28;20262;-71
2022/08/01 00:40:29;;;;;;;1999.90;999.90;;;;;;;22.48;100.00;95242.69;5056721;28;20188;-70
2022/08/01 00:42:55;;;;;;;1999.90;999.90;;;;;;;22.42;100.00;95237.81;5056440;28;20272;-64
2022/08/01 00:45:20;;;;;;;1999.90;999.90;;;;;;;22.39;100.00;95247.13;5056861;28;20584;-59
2022/08/01 00:47:46;;;;;;;1999.90;999.90;;;;;;;22.36;100.00;95242.50;5056923;28;20193;-62
2022/08/01 00:50:12;;;;;;;1999.90;999.90;;;;;;;22.33;100.00;95243.47;5073098;28;20177;-62
2022/08/01 00:52:39;;;;;;;1999.90;999.90;;;;;;;22.27;100.00;95239.84;5056891;28;20215;-62
2022/08/01 00:55:05;;;;;;;1999.90;999.90;;;;;;;22.24;100.00;95240.81;5056246;28;20185;-61
2022/08/01 00:57:30;;;;;;;1999.90;999.90;;;;;;;22.22;100.00;95243.28;5056520;28;20254;-61
2022/08/01 00:59:56;;;;;;;1999.90;999.90;;;;;;;22.12;100.00;95239.13;5056226;28;20192;-61
2022/08/01 01:02:21;;;;;;;1999.90;999.90;;;;;;;22.10;100.00;95247.16;5056562;28;20552;-64
2022/08/01 01:04:46;;;;;;;1999.90;999.90;;;;;;;22.04;100.00;95240.72;5056305;28;20189;-63
2022/08/01 01:07:21;;;;;;;1999.90;999.90;;;;;;;21.99;100.00;95246.97;5056188;28;20293;-62
2022/08/01 01:10:00;;;;;;;1999.90;999.90;;;;;;;21.97;100.00;95243.91;5056095;28;20204;-62
2022/08/01 01:12:32;;;;;;;1999.90;999.90;;;;;;;21.89;100.00;95248.31;5055731;28;20209;-64
2022/08/01 01:15:09;;;;;;;1999.90;999.90;;;;;;;21.87;100.00;95256.41;5056253;28;20197;-62
2022/08/01 01:17:41;;;;;;;1999.90;999.90;;;;;;;21.91;100.00;95251.41;5056007;28;20272;-62
2022/08/01 01:20:11;;;;;;;1999.90;999.90;;;;;;;21.73;100.00;95239.69;5056394;28;20227;-64
2022/08/01 01:22:47;;;;;;;1999.90;999.90;;;;;;;21.71;100.00;95254.06;5056873;28;20570;-67
2022/08/01 01:25:41;;;;;;;1999.90;999.90;;;;;;;21.74;100.00;95253.13;5056055;28;20196;-64
2022/08/01 01:28:29;;;;;;;1999.90;999.90;;;;;;;21.66;100.00;95251.94;5058108;28;20193;-66
2022/08/01 01:30:57;;;;;;;1999.90;999.90;;;;;;;21.62;100.00;95251.38;5056417;28;20308;-66
2022/08/01 01:33:25;;;;;;;1999.90;999.90;;;;;;;21.56;100.00;95249.72;5055778;28;20188;-64
2022/08/01 01:35:55;;;;;;;1999.90;999.90;;;;;;;21.55;100.00;95260.06;5055718;28;20193;-70
2022/08/01 01:38:31;;;;;;;1999.90;999.90;;;;;;;21.51;100.00;95259.50;5055896;28;20196;-61
2022/08/01 01:40:58;;;;;;;1999.90;999.90;;;;;;;21.52;100.00;95252.69;5056353;28;20267;-66
2022/08/01 01:43:26;;;;;;;1999.90;999.90;;;;;;;21.54;100.00;95260.56;5055559;28;20192;-72
2022/08/01 01:45:53;;;;;;;1999.90;999.90;;;;;;;21.52;100.00;95263.81;5055645;28;20541;-73
2022/08/01 01:48:21;;;;;;;1999.90;999.90;;;;;;;21.45;100.00;95257.88;5055762;28;20264;-66
2022/08/01 01:50:49;;;;;;;1999.90;999.90;;;;;;;21.44;100.00;95262.66;5055447;28;20196;-73
2022/08/01 01:53:17;;;;;;;1999.90;999.90;;;;;;;21.41;100.00;95258.03;5055719;28;20178;-69
2022/08/01 01:55:45;;;;;;;1999.90;999.90;;;;;;;21.36;100.00;95260.72;5055612;28;20234;-69
2022/08/01 01:58:13;;;;;;;1999.90;999.90;;;;;;;21.32;100.00;95260.91;5055080;28;20532;-62
2022/08/01 02:00:42;;;;;;;1999.90;999.90;;;;;;;21.31;100.00;95259.34;5055649;28;20181;-60
2022/08/01 02:03:09;;;;;;;1999.90;999.90;;;;;;;21.37;100.00;95265.78;5055433;28;20181;-60
2022/08/01 02:05:37;;;;;;;1999.90;999.90;;;;;;;21.36;100.00;95255.94;5056072;28;20188;-59
2022/08/01 02:08:04;;;;;;;1999.90;999.90;;;;;;;21.46;100.00;95260.16;5055508;28;20179;-60
2022/08/01 02:10:31;;;;;;;1999.90;999.90;;;;;;;21.51;100.00;95262.28;5055358;28;20209;-61
2022/08/01 02:12:59;;;;;;;1999.90;999.90;;;;;;;21.48;100.00;95262.44;5055382;28;20209;-60
2022/08/01 02:15:27;;;;;;;1999.90;999.90;;;;;;;21.51;100.00;95267.06;5055875;28;20627;-61
2022/08/01 02:17:56;;;;;;;1999.90;999.90;;;;;;;21.51;100.00;95270.63;5055627;28;20292;-62
2022/08/01 02:20:21;;;;;;;1999.90;999.90;;;;;;;21.52;100.00;95272.16;5055185;28;20184;-64
2022/08/01 02:22:53;;;;;;;1999.90;999.90;;;;;;;21.46;100.00;95267.72;5072199;28;20185;-64
2022/08/01 02:25:33;;;;;;;1999.90;999.90;;;;;;;21.45;100.00;95269.72;5075674;28;20192;-70
2022/08/01 02:28:03;;;;;;;1999.90;999.90;;;;;;;21.44;100.00;95273.75;5058974;28;20188;-67
2022/08/01 02:30:38;;;;;;;1999.90;999.90;;;;;;;21.47;100.00;95272.81;5059189;28;20626;-64
2022/08/01 02:33:14;;;;;;;1999.90;999.90;;;;;;;21.45;100.00;95280.09;5058584;28;20197;-64
2022/08/01 02:35:43;;;;;;;1999.90;999.90;;;;;;;21.42;100.00;95276.25;5058670;28;20717;-66
2022/08/01 02:38:13;;;;;;;1999.90;999.90;;;;;;;21.40;100.00;95277.97;5058952;28;20201;-58
2022/08/01 02:40:43;;;;;;;1999.90;999.90;;;;;;;21.37;100.00;95284.47;5058497;28;20195;-53
2022/08/01 02:43:10;;;;;;;1999.90;999.90;;;;;;;21.28;100.00;95276.22;5058816;28;20189;-60
2022/08/01 02:45:42;;;;;;;1999.90;999.90;;;;;;;21.33;100.00;95289.44;5058319;28;20549;-60
2022/08/01 02:48:13;;;;;;;1999.90;999.90;;;;;;;21.29;100.00;95289.63;5058705;28;20189;-54
2022/08/01 02:50:43;;;;;;;1999.90;999.90;;;;;;;21.24;100.00;95283.97;5075923;28;20280;-59
2022/08/01 02:53:12;;;;;;;1999.90;999.90;;;;;;;21.21;100.00;95285.69;5058546;28;20630;-63
2022/08/01 02:55:40;;;;;;;1999.90;999.90;;;;;;;21.20;100.00;95286.91;5058018;28;20238;-64
2022/08/01 02:58:08;;;;;;;1999.90;999.90;;;;;;;21.12;100.00;95282.97;5058071;28;20185;-62
2022/08/01 03:00:35;;;;;;;1999.90;999.90;;;;;;;21.08;100.00;95293.50;5058163;28;20280;-63
2022/08/01 03:03:03;;;;;;;1999.90;999.90;;;;;;;21.04;100.00;95292.91;5075857;28;20189;-62
2022/08/01 03:05:30;;;;;;;1999.90;999.90;;;;;;;21.04;100.00;95292.13;5058273;28;20284;-64
2022/08/01 03:07:57;;;;;;;1999.90;999.90;;;;;;;20.99;100.00;95290.78;5075048;28;20189;-62
2022/08/01 03:10:24;;;;;;;1999.90;999.90;;;;;;;20.92;100.00;95288.38;5058130;28;20776;-56
2022/08/01 03:12:51;;;;;;;1999.90;999.90;;;;;;;20.89;100.00;95294.84;5058271;28;20224;-61
2022/08/01 03:15:18;;;;;;;1999.90;999.90;;;;;;;20.85;100.00;95288.69;5057832;28;20189;-59
2022/08/01 03:17:46;;;;;;;1999.90;999.90;;;;;;;20.82;100.00;95292.41;5057950;28;20196;-60
2022/08/01 03:20:15;;;;;;;1999.90;999.90;;;;;;;20.80;100.00;95294.88;5057881;28;20227;-60
2022/08/01 03:22:43;;;;;;;1999.90;999.90;;;;;;;20.79;100.00;95301.66;5058311;28;20238;-59
2022/08/01 03:25:10;;;;;;;1999.90;999.90;;;;;;;20.76;100.00;95302.59;5057627;28;20568;-60
2022/08/01 03:27:37;;;;;;;1999.90;999.90;;;;;;;20.74;100.00;95299.53;5057644;28;20196;-60
2022/08/01 03:30:05;;;;;;;1999.90;999.90;;;;;;;20.76;100.00;95302.59;5057429;28;20193;-57
2022/08/01 03:32:31;;;;;;;1999.90;999.90;;;;;;;20.76;100.00;95308.16;5075471;28;20205;-72
2022/08/01 03:34:57;;;;;;;1999.90;999.90;;;;;;;20.81;100.00;95299.19;5057266;28;20242;-68
2022/08/01 03:37:29;;;;;;;1999.90;999.90;;;;;;;20.82;100.00;95308.28;5058087;28;20181;-69
2022/08/01 03:40:05;;;;;;;1999.90;999.90;;;;;;;20.83;100.00;95307.81;5057248;28;20219;-76
2022/08/01 03:42:36;;;;;;;1999.90;999.90;;;;;;;20.83;100.00;95307.81;5057377;28;20200;-70
2022/08/01 03:45:06;;;;;;;1999.90;999.90;;;;;;;20.79;100.00;95312.78;5058050;28;20193;-75
2022/08/01 03:47:34;;;;;;;1999.90;999.90;;;;;;;20.78;100.00;95314.03;5057612;28;20264;-60
2022/08/01 03:50:02;;;;;;;1999.90;999.90;;;;;;;20.79;100.00;95312.78;5057322;28;20275;-61
2022/08/01 03:52:29;;;;;;;1999.90;999.90;;;;;;;20.78;100.00;95319.56;5057186;28;20688;-61
2022/08/01 03:54:57;;;;;;;1999.90;999.90;;;;;;;20.75;100.00;95320.50;5057617;28;20185;-61
2022/08/01 03:57:25;;;;;;;1999.90;999.90;;;;;;;20.77;100.00;95331.16;5057602;28;20182;-60
2022/08/01 03:59:51;;;;;;;1999.90;999.90;;;;;;;20.78;100.00;95330.69;5057239;28;20196;-61
2022/08/01 04:02:18;;;;;;;1999.90;999.90;;;;;;;20.84;100.00;95337.13;5057123;28;20186;-63
2022/08/01 04:04:44;;;;;;;1999.90;999.90;;;;;;;20.83;100.00;95338.34;5057103;28;20545;-64
2022/08/01 04:07:32;;;;;;;1999.90;999.90;;;;;;;20.87;100.00;95336.16;5057371;28;20181;-61
2022/08/01 04:09:58;;;;;;;1999.90;999.90;;;;;;;20.91;100.00;95341.56;5056824;28;20213;-72
2022/08/01 04:12:24;;;;;;;1999.90;999.90;;;;;;;20.91;100.00;95339.53;5073327;28;20213;-69
2022/08/01 04:14:49;;;;;;;1999.90;999.90;;;;;;;20.95;100.00;95344.97;5056859;28;20243;-67
2022/08/01 04:17:16;;;;;;;1999.90;999.90;;;;;;;20.94;100.00;95341.41;5057387;28;20181;-72
2022/08/01 04:19:42;;;;;;;1999.90;999.90;;;;;;;20.97;100.00;95346.03;5056903;28;20250;-72
2022/08/01 04:22:09;;;;;;;1999.90;999.90;;;;;;;20.99;100.00;95349.13;5056614;28;20271;-66
2022/08/01 04:24:36;;;;;;;1999.90;999.90;;;;;;;21.00;100.00;95358.97;5057277;28;20189;-62
2022/08/01 04:27:05;;;;;;;1999.90;999.90;;;;;;;21.03;100.00;95351.69;5056752;28;20623;-60
2022/08/01 04:29:32;;;;;;;1999.90;999.90;;;;;;;21.05;100.00;95349.97;5056786;28;20193;-59
2022/08/01 04:32:00;;;;;;;1999.90;999.90;;;;;;;21.27;100.00;95369.16;5056448;28;20278;-60
2022/08/01 04:34:28;;;;;;;1999.90;999.90;;;;;;;21.40;100.00;95370.44;5056739;28;20666;-59
2022/08/01 04:36:55;;;;;;;1999.90;999.90;;;;;;;21.94;100.00;95375.63;5056242;28;20200;-63
2022/08/01 04:39:27;;;;;;;1999.90;999.90;;;;;;;22.51;100.00;95380.94;5056597;28;20181;-59
2022/08/01 04:41:58;;;;;;;1999.90;999.90;;;;;;;22.79;100.00;95387.75;5056971;28;20217;-67
2022/08/01 04:44:24;;;;;;;1999.90;999.90;;;;;;;22.75;100.00;95395.50;5057152;28;20185;-63
2022/08/01 04:46:54;;;;;;;1999.90;999.90;;;;;;;22.61;100.00;95396.31;5055707;28;20544;-62
2022/08/01 04:49:20;;;;;;;1999.90;999.90;;;;;;;22.56;100.00;95399.75;5056977;28;20189;-59
2022/08/01 04:51:57;;;;;;;1999.90;999.90;;;;;;;22.29;100.00;95389.66;5072774;28;20254;-60
2022/08/01 04:54:36;;;;;;;1999.90;999.90;;;;;;;22.19;100.00;95388.94;5056224;28;20189;-60
2022/08/01 04:57:03;;;;;;;1999.90;999.90;;;;;;;22.19;100.00;95391.75;5056104;28;20196;-60
2022/08/01 04:59:40;;;;;;;1999.90;999.90;;;;;;;22.19;100.00;95391.75;5055992;28;20197;-60
2022/08/01 05:02:07;;;;;;;1999.90;999.90;;;;;;;22.27;100.00;95392.91;5056501;28;20664;-68
2022/08/01 05:04:33;;;;;;;1999.90;999.90;;;;;;;22.40;100.00;95396.16;5056052;28;20187;-68
2022/08/01 05:06:58;;;;;;;1999.90;999.90;;;;;;;22.58;100.00;95403.56;5056249;28;20192;-67
2022/08/01 05:09:24;;;;;;;1999.90;999.90;;;;;;;22.80;100.00;95403.19;5072912;28;20201;-66
2022/08/01 05:11:49;;;;;;;1999.90;999.90;;;;;;;22.86;100.00;95407.59;5072887;28;20209;-69
2022/08/01 05:14:15;;;;;;;1999.90;999.90;;;;;;;23.07;100.00;95405.63;5055942;28;20181;-66
2022/08/01 05:16:41;;;;;;;1999.90;999.90;;;;;;;23.28;100.00;95415.59;5056268;28;20185;-62
2022/08/01 05:19:07;;;;;;;1999.90;999.90;;;;;;;23.29;100.00;95414.34;5055953;28;20188;-58
2022/08/01 05:21:33;;;;;;;1999.90;999.90;;;;;;;23.43;100.00;95410.75;5072492;28;20185;-59
2022/08/01 05:23:59;;;;;;;1999.90;999.90;;;;;;;23.58;100.00;95417.81;5073461;28;20189;-60
2022/08/01 05:26:24;;;;;;;1999.90;999.90;;;;;;;23.81;100.00;95413.25;5055539;28;20185;-59
2022/08/01 05:28:49;;;;;;;1999.90;999.90;;;;;;;23.87;100.00;95422.47;5055827;28;20193;-65
2022/08/01 05:31:15;;;;;;;1999.90;999.90;;;;;;;24.07;100.00;95419.72;5072563;28;20212;-68
2022/08/01 05:33:40;;;;;;;1999.90;999.90;;;;;;;24.31;100.00;95425.81;5056057;28;20276;-60
2022/08/01 05:36:05;;;;;;;1999.90;999.90;;;;;;;24.42;100.00;95428.72;5055627;28;20197;-62
2022/08/01 05:38:31;;;;;;;1999.90;999.90;;;;;;;24.78;98.71;95428.06;5055711;28;20185;-75
2022/08/01 05:40:56;;;;;;;1999.90;999.90;;;;;;;25.15;95.05;95434.47;5055824;28;20212;-62
2022/08/01 05:43:21;;;;;;;1999.90;999.90;;;;;;;26.39;87.58;95439.75;5072339;28;20185;-59
2022/08/01 05:45:47;;;;;;;1999.90;999.90;;;;;;;27.95;78.32;95437.22;5055625;28;20181;-60
2022/08/01 05:48:13;;;;;;;1999.90;999.90;;;;;;;28.73;71.40;95445.31;5055433;28;20195;-59
2022/08/01 05:50:38;;;;;;;1999.90;999.90;;;;;;;27.89;73.08;95447.69;5055674;28;20185;-59
2022/08/01 05:53:03;;;;;;;1999.90;999.90;;;;;;;27.92;73.69;95443.09;5072054;28;20235;-59
2022/08/01 05:55:29;;;;;;;1999.90;999.90;;;;;;;27.62;75.38;95442.91;5055311;28;20185;-69
2022/08/01 05:57:54;;;;;;;1999.90;999.90;;;;;;;28.43;71.03;95450.81;5056053;28;20287;-66
2022/08/01 06:00:20;;;;;;;1999.90;999.90;;;;;;;30.23;62.58;95452.66;5059596;28;20184;-64
2022/08/01 06:02:45;;;;;;;1999.90;999.90;;;;;;;31.43;57.05;95457.16;5075600;28;20205;-63
2022/08/01 06:05:11;;;;;;;1999.90;999.90;;;;;;;32.33;51.92;95444.44;5058962;28;20189;-63
2022/08/01 06:07:38;;;;;;;1999.90;999.90;;;;;;;32.99;48.73;95448.66;5058626;28;20226;-65
2022/08/01 06:10:04;;;;;;;1999.90;999.90;;;;;;;32.72;47.92;95457.75;5058838;28;20205;-63
2022/08/01 06:12:32;;;;;;;1999.90;999.90;;;;;;;33.17;47.53;95452.63;5059114;28;20227;-63
2022/08/01 06:14:58;;;;;;;1999.90;999.90;;;;;;;33.95;45.14;95457.16;5075326;28;20272;-61
2022/08/01 06:17:23;;;;;;;1999.90;999.90;;;;;;;34.18;42.51;95458.03;5058632;28;20209;-57
2022/08/01 06:19:48;;;;;;;1999.90;999.90;;;;;;;34.22;42.77;95458.47;5058947;28;20287;-61
2022/08/01 06:22:14;;;;;;;1999.90;999.90;;;;;;;34.84;42.02;95456.19;5058247;28;20185;-56
2022/08/01 06:24:39;;;;;;;1999.90;999.90;;;;;;;34.87;40.18;95455.81;5058698;28;21101;-56
2022/08/01 06:27:04;;;;;;;1999.90;999.90;;;;;;;35.52;39.14;95462.81;5058630;28;20284;-60
2022/08/01 06:29:31;;;;;;;1999.90;999.90;;;;;;;35.77;38.45;95455.28;5075278;28;20177;-59
2022/08/01 06:31:56;;;;;;;1999.90;999.90;;;;;;;35.93;37.83;95456.78;5058546;28;20201;-59
2022/08/01 06:34:22;;;;;;;1999.90;999.90;;;;;;;36.42;35.93;95459.97;5058555;28;20184;-72
2022/08/01 06:36:48;;;;;;;1999.90;999.90;;;;;;;36.37;36.60;95469.44;5058394;28;20330;-59
2022/08/01 06:39:13;;;;;;;1999.90;999.90;;;;;;;37.03;35.30;95464.13;5074900;28;20235;-60
2022/08/01 06:41:41;;;;;;;1999.90;999.90;;;;;;;37.30;33.75;95468.00;5074850;28;20208;-60
2022/08/01 06:44:07;;;;;;;1999.90;999.90;;;;;;;37.57;33.35;95466.09;5076128;28;20174;-60
2022/08/01 06:46:32;;;;;;;1999.90;999.90;;;;;;;37.13;34.52;95467.09;5058166;28;20188;-58
2022/08/01 06:48:58;;;;;;;1999.90;999.90;;;;;;;37.67;33.60;95463.41;5075085;28;20177;-59
2022/08/01 06:51:23;;;;;;;1999.90;999.90;;;;;;;37.36;34.87;95462.81;5057841;28;20308;-61
2022/08/01 06:53:48;;;;;;;1999.90;999.90;;;;;;;37.17;34.14;95470.38;5058789;28;20181;-74
2022/08/01 06:56:14;;;;;;;1999.90;999.90;;;;;;;38.15;33.27;95467.59;5075305;28;20227;-72
2022/08/01 06:58:39;;;;;;;1999.90;999.90;;;;;;;38.23;31.96;95469.03;5058239;28;20189;-74
2022/08/01 07:01:06;;;;;;;1999.90;999.90;;;;;;;38.29;32.29;95460.97;5074532;28;20189;-73
2022/08/01 07:03:33;;;;;;;1999.90;999.90;;;;;;;37.73;33.20;95466.78;5058020;28;20245;-75
2022/08/01 07:05:58;;;;;;;1999.90;999.90;;;;;;;38.15;32.58;95462.66;5075611;28;20196;-75
2022/08/01 07:08:24;;;;;;;1999.90;999.90;;;;;;;38.89;31.62;95463.19;5075522;28;20174;-71
2022/08/01 07:10:49;;;;;;;1999.90;999.90;;;;;;;39.49;30.34;95458.03;5057320;28;20216;-52
2022/08/01 07:13:20;;;;;;;1999.90;999.90;;;;;;;39.79;29.79;95463.34;5057848;28;20196;-62
2022/08/01 07:15:46;;;;;;;1999.90;999.90;;;;;;;40.23;29.29;95466.84;5074634;28;20177;-62
2022/08/01 07:18:11;;;;;;;1999.90;999.90;;;;;;;39.80;30.38;95456.28;5074831;28;20181;-62
2022/08/01 07:20:37;;;;;;;1999.90;999.90;;;;;;;40.43;29.43;95456.91;5074384;28;20181;-62
2022/08/01 07:23:03;;;;;;;1999.90;999.90;;;;;;;39.06;29.66;95457.47;5057685;28;20189;-59
2022/08/01 07:25:28;;;;;;;1999.90;999.90;;;;;;;40.00;29.68;95455.72;5057433;28;20181;-59
2022/08/01 07:27:53;;;;;;;1999.90;999.90;;;;;;;40.51;28.57;95463.25;5057713;28;20240;-62
2022/08/01 07:30:19;;;;;;;1999.90;999.90;;;;;;;39.44;29.80;95461.94;5057734;28;20189;-61
2022/08/01 07:32:44;;;;;;;1999.90;999.90;;;;;;;39.19;29.95;95456.34;5057856;28;20254;-61
2022/08/01 07:35:10;;;;;;;1999.90;999.90;;;;;;;38.96;30.94;95456.66;5057737;28;20253;-60
2022/08/01 07:37:35;;;;;;;1999.90;999.90;;;;;;;38.55;31.32;95465.31;5074156;28;20246;-58
2022/08/01 07:40:01;;;;;;;1999.90;999.90;;;;;;;39.22;30.78;95444.47;5074606;28;20185;-61
2022/08/01 07:42:26;;;;;;;1999.90;999.90;;;;;;;39.39;30.31;95442.97;5057695;28;20262;-62
2022/08/01 07:44:52;;;;;;;1999.90;999.90;;;;;;;39.87;29.09;95446.81;5074112;28;20186;-61
2022/08/01 07:47:24;;;;;;;1999.90;999.90;;;;;;;38.90;31.25;95450.44;5073941;28;20213;-69
2022/08/01 07:49:49;;;;;;;1999.90;999.90;;;;;;;39.24;30.49;95441.78;5074203;28;20188;-58
2022/08/01 07:52:14;;;;;;;1999.90;999.90;;;;;;;39.69;29.29;95445.34;5057064;28;20201;-59
2022/08/01 07:54:40;;;;;;;1999.90;999.90;;;;;;;39.56;29.88;95445.72;5056971;28;20185;-55
2022/08/01 07:57:05;;;;;;;1999.90;999.90;;;;;;;39.84;30.53;95450.84;5073581;28;20189;-56
2022/08/01 07:59:30;;;;;;;1999.90;999.90;;;;;;;39.99;29.87;95453.47;5073623;28;20262;-56
2022/08/01 08:01:56;;;;;;;1999.90;999.90;;;;;;;39.82;29.84;95454.31;5073566;28;20220;-55
2022/08/01 08:04:21;;;;;;;1999.90;999.90;;;;;;;40.52;29.02;95453.31;5057296;28;20183;-57
2022/08/01 08:06:47;;;;;;;1999.90;999.90;;;;;;;40.56;29.04;95450.75;5073942;28;20223;-72
2022/08/01 08:09:13;;;;;;;1999.90;999.90;;;;;;;41.12;28.04;95455.00;5073985;28;20209;-71
2022/08/01 08:11:38;;;;;;;1999.90;999.90;;;;;;;40.65;28.90;95450.00;5057125;28;20201;-70
2022/08/01 08:14:04;;;;;;;1999.90;999.90;;;;;;;40.73;28.64;95444.88;5073529;28;20244;-70
2022/08/01 08:16:29;;;;;;;1999.90;999.90;;;;;;;41.07;28.48;95447.47;5056867;28;20225;-65
2022/08/01 08:18:54;;;;;;;1999.90;999.90;;;;;;;41.12;28.08;95446.41;5056828;28;20262;-67
2022/08/01 08:21:20;;;;;;;1999.90;999.90;;;;;;;40.47;28.97;95445.75;5072626;28;20256;-70
2022/08/01 08:26:29;;;;;;;1999.90;999.90;;;;;;;39.80;30.07;95453.41;5074638;28;20192;-58
2022/08/01 08:28:55;;;;;;;1999.90;999.90;;;;;;;40.68;28.79;95448.81;5056718;28;20177;-54
2022/08/01 08:31:20;;;;;;;1999.90;999.90;;;;;;;40.32;28.84;95446.03;5056593;28;20208;-57
2022/08/01 08:33:45;;;;;;;1999.90;999.90;;;;;;;40.94;28.19;95442.16;5056637;28;20227;-57
2022/08/01 08:36:13;;;;;;;1999.90;999.90;;;;;;;40.43;29.01;95442.59;5074033;28;20219;-58
2022/08/01 08:38:38;;;;;;;1999.90;999.90;;;;;;;41.17;27.76;95442.44;5073254;28;20185;-55
2022/08/01 08:41:04;;;;;;;1999.90;999.90;;;;;;;41.61;27.29;95440.72;5056345;28;20181;-60
2022/08/01 08:43:29;;;;;;;1999.90;999.90;;;;;;;41.71;27.39;95434.91;5056782;28;20276;-58
2022/08/01 08:45:56;;;;;;;1999.90;999.90;;;;;;;41.20;27.40;95441.25;5056468;28;20189;-63
2022/08/01 08:48:21;;;;;;;1999.90;999.90;;;;;;;40.13;28.71;95443.09;5056638;28;20185;-60
2022/08/01 08:50:48;;;;;;;1999.90;999.90;;;;;;;39.94;29.18;95434.47;5073796;28;20189;-61
2022/08/01 08:53:15;;;;;;;1999.90;999.90;;;;;;;40.57;28.64;95432.19;5056212;28;20213;-59
2022/08/01 08:55:42;;;;;;;1999.90;999.90;;;;;;;40.35;29.37;95441.97;5073745;28;20177;-61
2022/08/01 08:58:17;;;;;;;1999.90;999.90;;;;;;;40.87;28.46;95443.06;5056037;28;20181;-61
2022/08/01 09:00:42;;;;;;;1999.90;999.90;;;;;;;41.29;27.87;95438.34;5056195;28;20184;-60
2022/08/01 09:03:08;;;;;;;1999.90;999.90;;;;;;;41.43;28.14;95435.75;5056090;28;20185;-57
2022/08/01 09:05:33;;;;;;;1999.90;999.90;;;;;;;42.25;26.13;95438.03;5056023;28;20188;-54
2022/08/01 09:07:59;;;;;;;1999.90;999.90;;;;;;;41.33;26.79;95438.63;5056083;28;20187;-55
2022/08/01 09:10:25;;;;;;;1999.90;999.90;;;;;;;40.83;26.85;95442.78;5055838;28;20204;-56
2022/08/01 09:13:14;;;;;;;1999.90;999.90;;;;;;;40.77;27.29;95433.72;5055406;28;20209;-51
2022/08/01 09:15:41;;;;;;;1999.90;999.90;;;;;;;40.66;28.12;95442.91;5073790;28;20169;-50
2022/08/01 09:18:06;;;;;;;1999.90;999.90;;;;;;;41.21;28.01;95437.00;5055753;28;20192;-67
2022/08/01 09:20:34;;;;;;;1999.90;999.90;;;;;;;41.61;26.77;95426.34;5073064;28;20185;-68
2022/08/01 09:23:00;;;;;;;1999.90;999.90;;;;;;;41.50;26.81;95431.97;5073426;28;20181;-71
2022/08/01 09:25:32;;;;;;;1999.90;999.90;;;;;;;41.34;26.77;95439.41;5056442;28;20187;-62
2022/08/01 09:28:05;;;;;;;1999.90;999.90;;;;;;;41.19;26.41;95439.75;5073145;28;20188;-62
2022/08/01 09:30:38;;;;;;;1999.90;999.90;;;;;;;40.41;27.81;95437.44;5055850;28;20177;-63
2022/08/01 09:33:05;;;;;;;1999.90;999.90;;;;;;;41.09;27.46;95441.88;5072244;28;20205;-64
2022/08/01 09:35:36;;;;;;;1999.90;999.90;;;;;;;40.15;28.32;95431.78;5072374;28;20185;-59
2022/08/01 09:38:19;;;;;;;1999.90;999.90;;;;;;;40.84;28.02;95433.56;5055911;28;20216;-57
2022/08/01 09:40:53;;;;;;;1999.90;999.90;;;;;;;41.04;26.72;95428.59;5055862;28;20264;-60
2022/08/01 09:43:21;;;;;;;1999.90;999.90;;;;;;;41.13;26.74;95430.69;5055660;28;20180;-60
2022/08/01 09:45:46;;;;;;;1999.90;999.90;;;;;;;41.72;25.73;95433.56;5056068;28;20192;-58
2022/08/01 09:48:12;;;;;;;1999.90;999.90;;;;;;;41.71;26.09;95429.19;5055703;28;20238;-53
2022/08/01 09:50:46;;;;;;;1999.90;999.90;;;;;;;41.43;26.38;95430.00;5055604;28;20192;-60
2022/08/01 09:53:12;;;;;;;1999.90;999.90;;;;;;;41.54;26.11;95426.53;5055940;28;20254;-59
2022/08/01 09:55:39;;;;;;;1999.90;999.90;;;;;;;42.00;25.41;95420.44;5055257;28;20234;-63
2022/08/01 09:58:05;;;;;;;1999.90;999.90;;;;;;;41.13;26.11;95419.22;5055502;28;20191;-49
2022/08/01 10:00:32;;;;;;;1999.90;999.90;;;;;;;42.28;25.82;95420.31;5055690;28;20272;-55
2022/08/01 10:02:58;;;;;;;1999.90;999.90;;;;;;;41.00;26.82;95419.69;5055123;28;20177;-49
2022/08/01 10:05:32;;;;;;;1999.90;999.90;;;;;;;40.58;26.83;95417.25;5072223;28;20185;-57
2022/08/01 10:07:59;;;;;;;1999.90;999.90;;;;;;;40.63;27.62;95406.88;5055579;28;20186;-53
2022/08/01 10:10:25;;;;;;;1999.90;999.90;;;;;;;40.01;27.92;95407.81;5055312;28;20206;-51
2022/08/01 10:12:51;;;;;;;1999.90;999.90;;;;;;;39.98;28.61;95411.88;5055244;28;20231;-56
2022/08/01 10:15:20;;;;;;;1999.90;999.90;;;;;;;41.24;27.22;95404.25;5055195;28;20200;-55
2022/08/01 10:17:54;;;;;;;1999.90;999.90;;;;;;;41.49;26.19;95410.38;5055619;28;20240;-57
2022/08/01 10:20:20;;;;;;;1999.90;999.90;;;;;;;40.55;27.50;95411.97;5055151;28;20278;-58
2022/08/01 10:22:46;;;;;;;1999.90;999.90;;;;;;;40.31;28.10;95407.28;5055330;28;20185;-59
2022/08/01 10:25:16;;;;;;;1999.90;999.90;;;;;;;38.97;29.47;95409.56;5055210;28;20192;-61
2022/08/01 10:27:45;;;;;;;1999.90;999.90;;;;;;;39.68;29.17;95400.91;5055255;28;20181;-53
2022/08/01 10:30:11;;;;;;;1999.90;999.90;;;;;;;38.07;31.04;95404.88;5054664;28;20276;-57
2022/08/01 10:32:37;;;;;;;1999.90;999.90;;;;;;;38.89;30.34;95403.16;5072542;28;20197;-71
2022/08/01 10:35:07;;;;;;;1999.90;999.90;;;;;;;39.35;29.58;95397.56;5054861;28;20261;-57
2022/08/01 10:37:34;;;;;;;1999.90;999.90;;;;;;;39.73;28.07;95402.72;5054887;28;20185;-58
2022/08/01 10:40:00;;;;;;;1999.90;999.90;;;;;;;39.54;29.33;95396.94;5054935;28;20275;-59
2022/08/01 10:42:27;;;;;;;1999.90;999.90;;;;;;;38.84;29.91;95395.63;5071419;28;20188;-59
2022/08/01 10:44:53;;;;;;;1999.90;999.90;;;;;;;39.38;29.58;95399.28;5055518;28;20185;-57
2022/08/01 10:47:29;;;;;;;1999.90;999.90;;;;;;;39.92;28.50;95386.41;5058669;28;20188;-58
2022/08/01 10:50:15;;;;;;;1999.90;999.90;;;;;;;39.26;29.08;95379.03;5058281;28;20195;-63
2022/08/01 10:52:41;;;;;;;1999.90;999.90;;;;;;;38.35;30.58;95390.09;5058249;28;20213;-58
2022/08/01 10:55:10;;;;;;;1999.90;999.90;;;;;;;38.44;30.14;95380.84;5074738;28;20188;-54